CheckWX is a tool to help pilots better visualize weather data.  It is not intended as a substitute for an official pre-flight weather briefing.

01:04:26 UTC

KCOE METAR
Coeur D'alene - Pappy Boyington Field Airport
Coeur D'alene, Idaho, USA
Current

1 hour ago

KCOE 192356Z AUTO 26008KT 10SM CLR 29/07 A2993 RMK AO2 SLP132 6//// T02940072 10300 20233 56004 PNO $
Observed
Aug-19 @ 23:56 UTC
Wind
  • 260° at 8 KTS
Visibility
10 SM
Flight Rules
VFR
Cloud Levels
  • Clear skies
Temperature
29°C / 84°F
Dewpoint
C / 45°F
Humidity
25%
Altimeter
29.93" Hg
Pressure
1013.52 hPa
Previous

2 hours ago

KCOE 192256Z AUTO 29007KT 260V320 10SM CLR 29/08 A2993 RMK AO2 SLP132 T02890078 PNO $
Observed
Aug-19 @ 22:56 UTC
Wind
  • 290° at 7 KTS
Visibility
10 SM
Flight Rules
VFR
Cloud Levels
  • Clear skies
Temperature
29°C / 84°F
Dewpoint
C / 46°F
Humidity
27%
Altimeter
29.93" Hg
Pressure
1013.52 hPa
Previous

3 hours ago

KCOE 192156Z AUTO 23008KT 10SM CLR 29/08 A2993 RMK AO2 SLP134 T02940078 PNO $
Observed
Aug-19 @ 21:56 UTC
Wind
  • 230° at 8 KTS
Visibility
10 SM
Flight Rules
VFR
Cloud Levels
  • Clear skies
Temperature
29°C / 84°F
Dewpoint
C / 46°F
Humidity
27%
Altimeter
29.93" Hg
Pressure
1013.52 hPa